| Date | Time | Temp. (oF) | Dew Point (oF) | Rel. Hum. (%) | Press. (in.) | Wind Dir. | Wind Speed (mph) | Hourly Rainfall (in.) |
|
|---|---|---|---|---|---|---|---|---|---|
| 1 | 05/31 | 00:00 | 69 | 57 | 68 | 29.94 | SSW | 4 | 0.00 |
| 2 | 05/30 | 23:00 | 70 | 57 | 64 | 29.94 | S | 7 | 0.00 |
| 3 | 05/30 | 22:00 | 71 | 56 | 61 | 29.95 | SSW | 9 | 0.00 |
| 4 | 05/30 | 21:00 | 72 | 57 | 61 | 29.95 | SSW | 9 | 0.00 |
| 5 | 05/30 | 20:00 | 75 | 59 | 59 | 29.94 | S | 8 | 0.00 |
| 6 | 05/30 | 19:00 | 79 | 60 | 54 | 29.93 | SSW | 10 | 0.00 |
| 7 | 05/30 | 18:00 | 81 | 61 | 52 | 29.93 | S | 7 | 0.00 |
| 8 | 05/30 | 17:00 | 81 | 61 | 52 | 29.95 | S | 13 | 0.00 |
| 9 | 05/30 | 16:00 | 83 | 57 | 43 | 29.96 | SSW | 7 | 0.00 |
| 10 | 05/30 | 15:00 | 83 | 55 | 39 | 29.99 | S | 5 | 0.00 |
| 11 | 05/30 | 14:00 | 83 | 55 | 40 | 30.02 | SSE | 6 | 0.00 |
| 12 | 05/30 | 13:00 | 81 | 54 | 41 | 30.05 | SSE | 8 | 0.00 |
| 13 | 05/30 | 12:00 | 79 | 56 | 46 | 30.07 | SSW | 6 | 0.00 |
| 14 | 05/30 | 11:00 | 78 | 55 | 46 | 30.09 | NE | 0 | 0.00 |
| 15 | 05/30 | 10:00 | 74 | 56 | 54 | 30.12 | S | 0 | 0.00 |
| 16 | 05/30 | 09:00 | 71 | 59 | 66 | 30.12 | ESE | 0 | 0.00 |
| 17 | 05/30 | 08:00 | 59 | 58 | 98 | 30.12 | NE | 0 | 0.00 |
| 18 | 05/30 | 07:00 | 51 | 50 | 100 | 30.11 | WSW | 0 | 0.00 |
| 19 | 05/30 | 06:00 | 49 | 48 | 99 | 30.11 | WSW | 0 | 0.00 |
| 20 | 05/30 | 05:00 | 50 | 49 | 97 | 30.10 | WSW | 0 | 0.00 |
| 21 | 05/30 | 04:00 | 52 | 50 | 94 | 30.08 | NNW | 0 | 0.00 |
| 22 | 05/30 | 03:00 | 52 | 49 | 92 | 30.08 | W | 0 | 0.00 |
| 23 | 05/30 | 02:00 | 53 | 49 | 88 | 30.09 | SW | 0 | 0.00 |
| 24 | 05/30 | 01:00 | 55 | 50 | 84 | 30.09 | WSW | 0 | 0.00 |